Impacts TAF Board INFO
FOR SITUATIONAL AWARENESS. NOT TO BE USED FOR FLIGHT PLANNING PURPOSES.
IDs:

KPHL - Philadelphia Intl, PA, US

Issued at 1445 UTC 23 May 2018
Updated at 1512 UTC 23 May 2018
Potential Impact None Slight Moderate High
Time1454Z 23/16Z 23/17Z 23/18Z 23/19Z 23/20Z 23/21Z 23/22Z 23/23Z 24/00Z 24/01Z 24/02Z 24/03Z 24/04Z>>
Type OBS PRVL PRVL PRVL PRVL PRVL PRVL PRVL PRVL PRVL PRVL PRVL PRVL PRVL
VIS 10 >6 >6 >6 >6 >6 >6 >6 >6 >6 >6 >6 >6 >6
CIG -- -- -- -- -- -- -- -- -- -- -- -- -- --
Cover SCT SCT SCT SCT SCT SCT SCT SCT SKC SKC SKC SKC SKC SKC
FltCat VFR VFR VFR VFR VFR VFR VFR VFR VFR VFR VFR VFR VFR VFR
WX -- -- -- -- -- -- -- -- -- -- -- -- -- --
WDir 330 330 330 330 330 330 330 330 VRB VRB VRB VRB VRB VRB
WSpd 14 9 9 9 9 9 9 9 3 3 3 3 3 3
WGst 21 -- -- -- -- -- -- -- -- -- -- -- -- --

Raw TAF
KPHL 231445Z 2315/2418 30012KT P6SM SCT025
  FM231600 33009KT P6SM SCT040
  FM232300 VRB03KT P6SM SKC
  FM241100 35005KT P6SM SKC


Raw METAR
KPHL 231454Z 33014G21KT 10SM SCT028 SCT050 23/16 A2996 RMK AO2 SLP145 T02330161 53004
KPHL 231430Z 30013KT 10SM SCT027 23/17 A2996 RMK AO2 T02330167
KPHL 231354Z 30014G17KT 10SM SCT014 BKN021 23/18 A2995 RMK AO2 SLP142 T02280178
KPHL 231343Z 29006KT 10SM SCT014 BKN021 21/18 A2995 RMK AO2 T02110178
KPHL 231316Z 28006KT 5SM BR BKN010 20/18 A2996 RMK AO2 T02000178
KPHL 231254Z 33005KT 4SM BR OVC007 19/17 A2995 RMK AO2 SLP142 T01890172
KPHL 231250Z 31004KT 4SM BR OVC007 19/17 A2995 RMK AO2

METAR Board
Radar Display
Forecast Discussion

FOR SITUATIONAL AWARENESS. NOT TO BE USED FOR FLIGHT PLANNING PURPOSES.